San Ramon de la Nueva Oran, Argentina
Current Conditions -  °F | °C
As of 8:00 PM on Monday 22 Dec 2014 (Local Time) from SLYA Reporting Station
Overcast Overcast  
Wind Chill: 18°   Ceiling: 7000
Heat Index: 18°   Visibility: 6mi
Dew Point: 16°   Wind: 7mph
Humidity: 88%   Direction: 180°S
Pressure: 30.12"   Gusts: NA
Location:  23.13°S, 64.33°W
Report Text: SLYA 222300Z 18006KT 9999 SCT020 OVC070 18/16 Q1020
Loading
Personal Weather Stations






























Interactive Weather Map New forecast layout! Learn more

10-Day Weather Forecast

Advertisements
Track Severe Weather on mobile